createdAt,value
2022-07-27T00:00:32.774Z,94.50
2022-07-27T00:01:06.648Z,94.60
2022-07-27T00:01:40.281Z,94.60
2022-07-27T00:02:18.999Z,94.60
2022-07-27T00:02:52.564Z,94.60
2022-07-27T00:03:27.195Z,94.60
2022-07-27T00:04:01.654Z,94.60
2022-07-27T00:04:34.760Z,94.60
2022-07-27T00:05:09.940Z,94.70
2022-07-27T00:05:46.378Z,94.70
2022-07-27T00:06:19.566Z,94.70
2022-07-27T00:06:54.163Z,94.80
2022-07-27T00:07:27.886Z,94.80
2022-07-27T00:08:02.572Z,94.90
2022-07-27T00:08:36.404Z,94.90
2022-07-27T00:09:10.729Z,94.90
2022-07-27T00:09:44.620Z,94.90
2022-07-27T00:10:18.181Z,94.90
2022-07-27T00:10:53.953Z,95.00
2022-07-27T00:11:27.927Z,95.00
2022-07-27T00:12:01.645Z,95.00
2022-07-27T00:12:35.784Z,95.00
2022-07-27T00:13:10.382Z,95.00
2022-07-27T00:13:45.863Z,94.90
2022-07-27T00:14:19.142Z,95.00
2022-07-27T00:14:53.665Z,95.20
2022-07-27T00:15:27.892Z,95.00
2022-07-27T00:16:01.871Z,95.00
2022-07-27T00:16:37.514Z,95.10
2022-07-27T00:17:11.207Z,95.10
2022-07-27T00:17:44.617Z,95.10
2022-07-27T00:18:20.061Z,95.10
2022-07-27T00:18:53.032Z,95.10
2022-07-27T00:19:27.740Z,95.10
2022-07-27T00:20:01.797Z,95.20
2022-07-27T00:20:35.787Z,95.20
2022-07-27T00:21:11.673Z,95.30
2022-07-27T00:21:46.408Z,95.40
2022-07-27T00:22:19.865Z,95.40
2022-07-27T00:22:53.609Z,95.40
2022-07-27T00:23:29.621Z,95.40
2022-07-27T00:24:03.364Z,95.50
2022-07-27T00:24:37.807Z,95.50
2022-07-27T00:25:12.851Z,95.50
2022-07-27T00:25:50.390Z,95.40
2022-07-27T00:26:24.856Z,95.40
2022-07-27T00:26:58.164Z,95.40
2022-07-27T00:27:32.345Z,95.40
2022-07-27T00:28:07.181Z,95.50
2022-07-27T00:28:42.379Z,95.50
2022-07-27T00:29:15.908Z,95.50
2022-07-27T00:29:49.177Z,95.50
2022-07-27T00:30:23.219Z,95.50
2022-07-27T00:30:57.057Z,95.50
2022-07-27T00:31:30.745Z,95.40
2022-07-27T00:32:12.328Z,95.40
2022-07-27T00:32:47.285Z,95.50
2022-07-27T00:33:20.819Z,95.50
2022-07-27T00:33:55.898Z,95.60
2022-07-27T00:34:29.960Z,95.60
2022-07-27T00:35:03.993Z,95.70
2022-07-27T00:35:37.689Z,95.70
2022-07-27T00:36:15.180Z,95.70
2022-07-27T00:36:49.421Z,95.70
2022-07-27T00:37:23.911Z,95.70
2022-07-27T00:37:58.128Z,95.70
2022-07-27T00:38:34.187Z,95.70
2022-07-27T00:39:08.793Z,95.60
2022-07-27T00:39:44.668Z,95.60
2022-07-27T00:40:18.886Z,95.60
2022-07-27T00:40:52.944Z,95.90
2022-07-27T00:41:27.444Z,95.60
2022-07-27T00:42:01.397Z,95.60
2022-07-27T00:42:36.622Z,95.70
2022-07-27T00:43:09.956Z,95.70
2022-07-27T00:43:58.620Z,95.70
2022-07-27T00:44:33.730Z,95.80
2022-07-27T00:45:08.271Z,95.80
2022-07-27T00:45:43.074Z,95.80
2022-07-27T00:46:16.947Z,95.80
2022-07-27T00:46:50.717Z,95.80
2022-07-27T00:47:24.615Z,95.80
2022-07-27T00:47:59.123Z,95.80
2022-07-27T00:48:33.711Z,95.80
2022-07-27T00:49:08.836Z,95.80
2022-07-27T00:49:43.696Z,95.90
2022-07-27T00:50:16.750Z,95.90
2022-07-27T00:50:50.897Z,95.90
2022-07-27T00:51:26.896Z,95.90
2022-07-27T00:52:00.189Z,96.00
2022-07-27T00:52:35.727Z,96.00
2022-07-27T00:53:09.567Z,96.00
2022-07-27T00:53:43.171Z,96.10
2022-07-27T00:54:17.494Z,96.30
2022-07-27T00:54:51.040Z,96.10
2022-07-27T00:55:26.476Z,96.20
2022-07-27T00:56:02.155Z,96.20
2022-07-27T00:56:36.750Z,96.20
2022-07-27T00:57:13.075Z,96.20
2022-07-27T00:57:57.871Z,96.10
2022-07-27T00:58:34.164Z,96.10
2022-07-27T00:59:12.050Z,96.10
2022-07-27T00:59:47.029Z,96.30
2022-07-27T01:00:24.275Z,96.00
2022-07-27T01:00:58.436Z,96.10
2022-07-27T01:01:33.135Z,96.10
2022-07-27T01:02:11.953Z,96.10
2022-07-27T01:02:46.491Z,96.20
2022-07-27T01:03:23.249Z,96.20
2022-07-27T01:04:04.328Z,96.30
2022-07-27T01:04:39.506Z,96.20
2022-07-27T01:05:13.228Z,96.20
2022-07-27T01:05:47.884Z,96.20
2022-07-27T01:06:26.970Z,96.20
2022-07-27T01:07:03.876Z,96.20
2022-07-27T01:07:37.215Z,96.30
2022-07-27T01:08:14.723Z,96.40
2022-07-27T01:08:49.216Z,96.40
2022-07-27T01:09:41.478Z,96.40
2022-07-27T01:10:17.148Z,96.30
2022-07-27T01:10:53.010Z,96.20
2022-07-27T01:11:27.325Z,96.20
2022-07-27T01:12:02.006Z,96.20
2022-07-27T01:12:36.111Z,96.20
2022-07-27T01:13:12.327Z,96.20
2022-07-27T01:13:48.764Z,96.20
2022-07-27T01:14:22.901Z,96.20
2022-07-27T01:15:02.233Z,96.20
2022-07-27T01:15:40.057Z,96.30
2022-07-27T01:16:15.128Z,96.30
2022-07-27T01:16:48.732Z,96.40
2022-07-27T01:17:23.695Z,96.40
2022-07-27T01:17:57.685Z,96.40
2022-07-27T01:18:34.031Z,96.50
2022-07-27T01:19:08.407Z,96.50
2022-07-27T01:19:42.729Z,96.60
2022-07-27T01:20:16.456Z,96.60
2022-07-27T01:20:51.065Z,96.60
2022-07-27T01:21:25.192Z,96.60
2022-07-27T01:22:10.330Z,96.60
2022-07-27T01:22:43.551Z,96.60
2022-07-27T01:23:18.267Z,96.50
2022-07-27T01:23:52.529Z,96.60
2022-07-27T01:24:25.845Z,96.60
2022-07-27T01:25:00.215Z,96.60
2022-07-27T01:25:35.064Z,96.70
2022-07-27T01:26:08.773Z,96.70
2022-07-27T01:26:42.352Z,96.70
2022-07-27T01:27:16.492Z,96.80
2022-07-27T01:27:50.482Z,96.80
2022-07-27T01:28:24.561Z,96.80
2022-07-27T01:29:00.998Z,96.90
2022-07-27T01:29:35.827Z,96.70
2022-07-27T01:30:27.083Z,96.70
2022-07-27T01:31:01.291Z,96.70
2022-07-27T01:31:34.953Z,96.70
2022-07-27T01:32:08.965Z,96.80
2022-07-27T01:32:44.199Z,96.80
2022-07-27T01:33:18.554Z,96.80
2022-07-27T01:33:53.141Z,96.80
2022-07-27T01:34:26.867Z,96.80
2022-07-27T01:35:03.187Z,96.80
2022-07-27T01:35:36.777Z,96.80
2022-07-27T01:36:11.543Z,96.90
2022-07-27T01:36:46.766Z,96.90
2022-07-27T01:37:21.744Z,96.90
2022-07-27T01:37:55.866Z,97.00
2022-07-27T01:38:31.320Z,97.00
2022-07-27T01:39:05.126Z,97.00
2022-07-27T01:39:38.887Z,96.90
2022-07-27T01:40:15.012Z,96.90
2022-07-27T01:40:48.007Z,96.90
2022-07-27T01:41:21.669Z,96.90
2022-07-27T01:41:56.640Z,96.90
2022-07-27T01:42:30.738Z,96.90
2022-07-27T01:43:06.128Z,96.90
2022-07-27T01:43:41.681Z,96.80
2022-07-27T01:44:15.131Z,96.90
2022-07-27T01:44:48.807Z,96.90
2022-07-27T01:45:23.267Z,96.90
2022-07-27T01:45:56.851Z,96.90
2022-07-27T01:46:30.676Z,96.90
2022-07-27T01:47:14.015Z,97.00
2022-07-27T01:47:49.557Z,97.10
2022-07-27T01:48:22.815Z,97.00
2022-07-27T01:48:58.186Z,96.90
2022-07-27T01:49:33.076Z,96.80
2022-07-27T01:50:08.640Z,96.70
2022-07-27T01:50:45.403Z,96.70
2022-07-27T01:51:21.697Z,96.70
2022-07-27T01:51:55.678Z,96.80
2022-07-27T01:52:32.336Z,96.80
2022-07-27T01:53:05.752Z,96.80
2022-07-27T01:53:45.445Z,96.80
2022-07-27T01:54:18.834Z,96.80
2022-07-27T01:54:53.670Z,96.80
2022-07-27T01:55:37.883Z,96.80
2022-07-27T01:56:13.855Z,96.80
2022-07-27T01:56:48.338Z,97.10
2022-07-27T01:57:22.446Z,96.90
2022-07-27T01:57:56.125Z,96.90
2022-07-27T01:58:32.230Z,96.90
2022-07-27T01:59:05.160Z,96.90
2022-07-27T01:59:39.354Z,96.90
2022-07-27T02:00:15.959Z,96.90
2022-07-27T02:00:50.104Z,96.90
2022-07-27T02:01:25.178Z,96.90
2022-07-27T02:01:59.690Z,96.90
2022-07-27T02:02:33.145Z,96.90
2022-07-27T02:03:07.972Z,96.90
2022-07-27T02:03:42.427Z,96.90
2022-07-27T02:04:19.157Z,96.90
2022-07-27T02:04:53.178Z,96.90
2022-07-27T02:05:28.423Z,96.90
2022-07-27T02:06:03.493Z,96.90
2022-07-27T02:06:37.052Z,96.90
2022-07-27T02:07:11.712Z,96.90
2022-07-27T02:07:46.359Z,97.00
2022-07-27T02:08:20.114Z,97.00
2022-07-27T02:08:56.630Z,97.00
2022-07-27T02:09:31.144Z,97.10
2022-07-27T02:10:05.345Z,97.10
2022-07-27T02:11:00.725Z,97.10
2022-07-27T02:11:52.387Z,97.10
2022-07-27T02:12:38.217Z,97.10
2022-07-27T02:13:21.983Z,97.10
2022-07-27T02:13:56.679Z,97.10
2022-07-27T02:14:29.706Z,97.10
2022-07-27T02:15:06.307Z,97.10
2022-07-27T02:15:43.187Z,97.10
2022-07-27T02:16:20.021Z,97.10
2022-07-27T02:16:55.425Z,97.40
2022-07-27T02:17:30.225Z,97.20
2022-07-27T02:18:03.941Z,97.20
2022-07-27T02:18:58.681Z,97.20
2022-07-27T02:19:32.606Z,97.10
2022-07-27T02:20:07.699Z,97.10
2022-07-27T02:20:42.710Z,97.20
2022-07-27T02:21:16.823Z,97.20
2022-07-27T02:21:51.088Z,97.20
2022-07-27T02:22:25.315Z,97.30
2022-07-27T02:23:00.816Z,97.30
2022-07-27T02:23:35.532Z,97.30
2022-07-27T02:24:11.277Z,97.30
2022-07-27T02:24:45.525Z,97.40
2022-07-27T02:25:20.473Z,97.40
2022-07-27T02:25:56.218Z,97.40
2022-07-27T02:26:30.060Z,97.50
2022-07-27T02:27:04.976Z,97.60
2022-07-27T02:27:40.589Z,97.50
2022-07-27T02:28:15.925Z,97.40
2022-07-27T02:28:50.321Z,97.30
2022-07-27T02:29:24.864Z,97.30
2022-07-27T02:29:58.667Z,97.30
2022-07-27T02:30:33.426Z,97.30
2022-07-27T02:31:08.184Z,97.30
2022-07-27T02:31:41.393Z,97.30
2022-07-27T02:32:15.542Z,97.30
2022-07-27T02:32:50.988Z,97.30
2022-07-27T02:33:25.564Z,97.30
2022-07-27T02:33:59.573Z,97.20
2022-07-27T02:34:33.832Z,97.20
2022-07-27T02:35:19.070Z,97.20
2022-07-27T02:35:53.405Z,97.20
2022-07-27T02:36:29.423Z,97.20
2022-07-27T02:37:03.066Z,97.20
2022-07-27T02:37:36.843Z,97.20
2022-07-27T02:38:12.785Z,97.20
2022-07-27T02:38:46.893Z,97.20
2022-07-27T02:39:21.347Z,97.20
2022-07-27T02:39:55.276Z,97.20
2022-07-27T02:40:29.852Z,97.20
2022-07-27T02:41:04.415Z,97.10
2022-07-27T02:41:37.909Z,97.10
2022-07-27T02:42:12.134Z,97.10
2022-07-27T02:42:49.021Z,97.10
2022-07-27T02:43:22.251Z,97.10
2022-07-27T02:43:56.560Z,97.10
2022-07-27T02:44:31.623Z,97.10
2022-07-27T02:45:08.440Z,97.10
2022-07-27T02:45:42.242Z,97.10
2022-07-27T02:46:16.703Z,97.10
2022-07-27T02:46:50.765Z,97.10
2022-07-27T02:47:24.944Z,97.10
2022-07-27T02:47:59.711Z,97.10
2022-07-27T02:48:34.060Z,97.00
2022-07-27T02:49:08.361Z,97.10
2022-07-27T02:49:42.655Z,97.00
2022-07-27T02:50:17.016Z,97.00
2022-07-27T02:50:50.745Z,97.00
2022-07-27T02:51:25.535Z,97.00
2022-07-27T02:51:59.085Z,97.00
2022-07-27T02:52:32.353Z,97.00
2022-07-27T02:53:06.096Z,96.90
2022-07-27T02:53:40.913Z,96.80
2022-07-27T02:54:17.893Z,96.80
2022-07-27T02:54:52.098Z,96.80
2022-07-27T02:55:25.610Z,96.80
2022-07-27T02:55:59.245Z,96.80
2022-07-27T02:56:33.494Z,96.70
2022-07-27T02:57:07.165Z,96.70
2022-07-27T02:57:42.008Z,96.70
2022-07-27T02:58:16.368Z,96.70
2022-07-27T02:58:50.512Z,96.60
2022-07-27T02:59:25.304Z,96.60
2022-07-27T02:59:59.596Z,96.60
2022-07-27T03:00:34.788Z,96.60
2022-07-27T03:01:08.518Z,96.50
2022-07-27T03:01:43.964Z,96.50
2022-07-27T03:02:17.932Z,96.40
2022-07-27T03:02:51.780Z,96.40
2022-07-27T03:03:34.515Z,96.30
2022-07-27T03:04:11.669Z,96.30
2022-07-27T03:04:44.809Z,96.30
2022-07-27T03:05:20.270Z,96.20
2022-07-27T03:05:55.377Z,96.20
2022-07-27T03:06:30.185Z,96.20
2022-07-27T03:07:04.180Z,96.20
2022-07-27T03:07:38.245Z,96.20
2022-07-27T03:08:12.840Z,96.20
2022-07-27T03:08:48.106Z,96.20
2022-07-27T03:09:20.770Z,96.20
2022-07-27T03:10:08.608Z,96.50
2022-07-27T03:10:48.703Z,96.30
2022-07-27T03:11:25.589Z,96.30
2022-07-27T03:12:00.159Z,96.30
2022-07-27T03:12:34.445Z,96.30
2022-07-27T03:13:08.479Z,96.20
2022-07-27T03:13:41.359Z,96.20
2022-07-27T03:14:14.343Z,96.20
2022-07-27T03:14:50.161Z,96.20
2022-07-27T03:15:24.007Z,96.20
2022-07-27T03:16:00.122Z,96.10
2022-07-27T03:16:35.204Z,96.00
2022-07-27T03:17:08.521Z,95.90
2022-07-27T03:17:43.192Z,95.90
2022-07-27T03:18:22.126Z,95.90
2022-07-27T03:18:55.736Z,95.90
2022-07-27T03:19:30.565Z,95.80
2022-07-27T03:20:08.870Z,95.80
2022-07-27T03:20:45.446Z,95.80
2022-07-27T03:21:18.888Z,95.70
2022-07-27T03:21:57.527Z,95.70
2022-07-27T03:22:33.187Z,95.60
2022-07-27T03:23:07.064Z,95.50
2022-07-27T03:23:41.617Z,95.30
2022-07-27T03:24:20.065Z,95.30
2022-07-27T03:24:54.206Z,95.30
2022-07-27T03:25:29.124Z,95.30
2022-07-27T03:26:02.862Z,95.30
2022-07-27T03:26:36.707Z,95.30
2022-07-27T03:27:11.671Z,95.20
2022-07-27T03:27:45.820Z,95.20
2022-07-27T03:28:19.493Z,95.10
2022-07-27T03:28:53.802Z,95.10
2022-07-27T03:29:29.502Z,95.00
2022-07-27T03:30:02.822Z,94.90
2022-07-27T03:30:38.580Z,94.80
2022-07-27T03:31:13.813Z,94.80
2022-07-27T03:31:48.505Z,94.90
2022-07-27T03:32:23.969Z,95.00
2022-07-27T03:32:57.125Z,94.70
2022-07-27T03:33:32.183Z,94.50
2022-07-27T03:34:06.423Z,94.20
2022-07-27T03:34:41.800Z,93.90
2022-07-27T03:35:15.895Z,93.80
2022-07-27T03:35:50.992Z,93.60
2022-07-27T03:36:26.926Z,93.50
2022-07-27T03:37:01.404Z,93.50
2022-07-27T03:37:36.043Z,93.30
2022-07-27T03:38:11.634Z,93.10
2022-07-27T03:38:46.904Z,93.10
2022-07-27T03:39:23.088Z,93.10
2022-07-27T03:39:57.784Z,93.00
2022-07-27T03:40:33.442Z,92.90
2022-07-27T03:41:07.061Z,93.40
2022-07-27T03:41:41.973Z,93.30
2022-07-27T03:42:15.418Z,93.40
2022-07-27T03:42:50.316Z,93.50
2022-07-27T03:43:23.975Z,93.50
2022-07-27T03:43:58.526Z,93.20
2022-07-27T03:44:32.760Z,93.20
2022-07-27T03:45:11.768Z,93.30
2022-07-27T03:45:46.787Z,93.20
2022-07-27T03:46:22.238Z,93.10
2022-07-27T03:46:59.927Z,92.90
2022-07-27T03:47:33.367Z,92.70
2022-07-27T03:48:08.496Z,92.60
2022-07-27T03:48:43.212Z,92.30
2022-07-27T03:49:18.212Z,92.20
2022-07-27T03:49:53.440Z,92.10
2022-07-27T03:50:27.997Z,92.00
2022-07-27T03:51:03.663Z,92.00
2022-07-27T03:51:37.102Z,92.00
2022-07-27T03:52:15.796Z,91.90
2022-07-27T03:52:51.133Z,91.70
2022-07-27T03:53:25.722Z,91.60
2022-07-27T03:53:59.528Z,91.50
2022-07-27T03:54:35.833Z,91.50
2022-07-27T03:55:11.137Z,91.40
2022-07-27T03:55:45.083Z,91.30
2022-07-27T03:56:21.342Z,91.20
2022-07-27T03:56:55.206Z,91.10
2022-07-27T03:57:29.696Z,91.00
2022-07-27T03:58:03.873Z,90.80
2022-07-27T03:58:38.041Z,90.70
2022-07-27T03:59:12.250Z,90.60
2022-07-27T03:59:49.254Z,90.50
2022-07-27T04:00:24.912Z,90.50
2022-07-27T04:00:58.937Z,90.50
2022-07-27T04:01:34.660Z,90.50
2022-07-27T04:02:09.151Z,90.70
2022-07-27T04:02:45.444Z,90.80
2022-07-27T04:03:19.167Z,90.80
2022-07-27T04:03:52.909Z,91.00
2022-07-27T04:04:27.829Z,90.80
2022-07-27T04:05:02.038Z,90.70
2022-07-27T04:05:38.745Z,90.60
2022-07-27T04:06:11.952Z,90.50
2022-07-27T04:06:45.548Z,90.40
2022-07-27T04:07:21.628Z,90.30
2022-07-27T04:07:55.599Z,90.30
2022-07-27T04:08:30.565Z,90.10
2022-07-27T04:09:07.929Z,90.00
2022-07-27T04:09:43.931Z,89.50
2022-07-27T04:10:21.562Z,89.30
2022-07-27T04:10:57.325Z,88.50
2022-07-27T04:11:31.289Z,87.40
2022-07-27T04:12:06.950Z,87.00
2022-07-27T04:12:40.539Z,87.00
2022-07-27T04:13:15.447Z,86.90
2022-07-27T04:13:52.927Z,87.30
2022-07-27T04:14:27.627Z,87.50
2022-07-27T04:15:03.415Z,87.40
2022-07-27T04:15:38.423Z,86.70
2022-07-27T04:16:11.555Z,85.60
2022-07-27T04:16:48.054Z,85.00
2022-07-27T04:17:54.678Z,84.70
2022-07-27T04:18:17.484Z,84.70
2022-07-27T04:18:54.507Z,84.10
2022-07-27T04:19:30.168Z,83.80
2022-07-27T04:20:04.746Z,83.90
2022-07-27T04:20:39.069Z,83.90
2022-07-27T04:21:13.528Z,84.00
2022-07-27T04:21:46.987Z,84.20
2022-07-27T04:22:22.119Z,84.30
2022-07-27T04:22:56.246Z,84.30
2022-07-27T04:23:36.146Z,84.90
2022-07-27T04:24:11.581Z,85.80
2022-07-27T04:24:47.912Z,85.80
2022-07-27T04:25:21.372Z,85.60
2022-07-27T04:25:55.758Z,85.20
2022-07-27T04:26:30.199Z,84.80
2022-07-27T04:27:03.623Z,84.20
2022-07-27T04:27:38.819Z,83.50
2022-07-27T04:28:13.923Z,82.90
2022-07-27T04:28:47.892Z,82.50
2022-07-27T04:29:24.151Z,82.10
2022-07-27T04:30:00.186Z,81.90
2022-07-27T04:30:33.903Z,81.80
2022-07-27T04:31:08.527Z,81.80
2022-07-27T04:31:42.225Z,81.80
2022-07-27T04:32:16.212Z,82.10
2022-07-27T04:32:51.472Z,81.90
2022-07-27T04:33:26.964Z,81.90
2022-07-27T04:34:01.270Z,82.00
2022-07-27T04:34:37.874Z,82.00
2022-07-27T04:35:12.558Z,82.10
2022-07-27T04:35:46.517Z,82.00
2022-07-27T04:36:21.610Z,81.70
2022-07-27T04:36:56.459Z,81.50
2022-07-27T04:37:30.255Z,81.20
2022-07-27T04:38:04.855Z,80.90
2022-07-27T04:38:38.646Z,80.90
2022-07-27T04:39:12.396Z,81.00
2022-07-27T04:39:49.319Z,81.10
2022-07-27T04:40:23.991Z,81.40
2022-07-27T04:40:58.472Z,81.50
2022-07-27T04:41:33.592Z,81.50
2022-07-27T04:42:09.807Z,81.50
2022-07-27T04:42:49.381Z,81.50
2022-07-27T04:43:25.550Z,81.20
2022-07-27T04:44:05.118Z,80.80
2022-07-27T04:44:39.280Z,80.40
2022-07-27T04:45:13.905Z,80.20
2022-07-27T04:45:48.435Z,80.50
2022-07-27T04:46:24.392Z,80.20
2022-07-27T04:46:58.391Z,80.20
2022-07-27T04:47:32.705Z,80.20
2022-07-27T04:48:12.942Z,79.90
2022-07-27T04:48:49.529Z,79.80
2022-07-27T04:49:23.996Z,80.70
2022-07-27T04:49:59.864Z,80.80
2022-07-27T04:50:34.169Z,80.80
2022-07-27T04:51:08.767Z,80.50
2022-07-27T04:51:45.581Z,80.20
2022-07-27T04:52:19.127Z,79.90
2022-07-27T04:53:02.168Z,79.80
2022-07-27T04:53:37.657Z,79.90
2022-07-27T04:54:28.032Z,79.80
2022-07-27T04:55:02.361Z,79.50
2022-07-27T04:55:37.709Z,79.30
2022-07-27T04:56:12.336Z,79.20
2022-07-27T04:56:47.024Z,79.00
2022-07-27T04:57:21.850Z,78.70
2022-07-27T04:57:57.025Z,78.60
2022-07-27T04:58:31.318Z,78.40
2022-07-27T04:59:07.169Z,78.70
2022-07-27T04:59:41.161Z,78.90
2022-07-27T05:00:20.105Z,78.90
2022-07-27T05:00:56.253Z,78.90
2022-07-27T05:01:35.099Z,78.50
2022-07-27T05:02:09.051Z,77.90
2022-07-27T05:02:44.376Z,77.70
2022-07-27T05:03:19.030Z,77.60
2022-07-27T05:03:53.147Z,78.10
2022-07-27T05:04:28.567Z,78.90
2022-07-27T05:05:05.700Z,79.10
2022-07-27T05:05:49.738Z,78.50
2022-07-27T05:06:23.657Z,78.30
2022-07-27T05:06:57.508Z,78.40
2022-07-27T05:07:34.331Z,78.50
2022-07-27T05:08:07.650Z,78.40
2022-07-27T05:08:42.062Z,78.10
2022-07-27T05:09:22.388Z,78.00
2022-07-27T05:09:56.815Z,78.30
2022-07-27T05:10:33.903Z,78.90
2022-07-27T05:11:08.836Z,79.20
2022-07-27T05:11:50.947Z,79.10
2022-07-27T05:12:25.359Z,79.00
2022-07-27T05:13:00.722Z,79.50
2022-07-27T05:13:36.870Z,79.20
2022-07-27T05:14:10.321Z,78.90
2022-07-27T05:14:46.113Z,78.60
2022-07-27T05:15:19.683Z,78.60
2022-07-27T05:15:56.017Z,78.50
2022-07-27T05:16:31.304Z,78.30
2022-07-27T05:17:08.078Z,78.90
2022-07-27T05:17:43.212Z,78.30
2022-07-27T05:18:17.234Z,78.50
2022-07-27T05:18:51.894Z,78.00
2022-07-27T05:19:40.192Z,77.80
2022-07-27T05:20:15.716Z,77.40
2022-07-27T05:20:51.830Z,77.20
2022-07-27T05:21:25.939Z,77.10
2022-07-27T05:22:00.174Z,77.00
2022-07-27T05:22:39.293Z,76.60
2022-07-27T05:23:14.673Z,76.30
2022-07-27T05:23:48.348Z,76.10
2022-07-27T05:24:22.920Z,76.00
2022-07-27T05:24:58.257Z,76.20
2022-07-27T05:25:35.142Z,76.30
2022-07-27T05:26:09.996Z,76.30
2022-07-27T05:26:45.108Z,76.60
2022-07-27T05:27:19.403Z,76.70
2022-07-27T05:27:54.497Z,76.40
2022-07-27T05:28:29.779Z,76.20
2022-07-27T05:29:04.733Z,75.90
2022-07-27T05:29:38.764Z,76.00
2022-07-27T05:30:50.185Z,76.30
2022-07-27T05:31:23.728Z,76.20
2022-07-27T05:32:00.546Z,76.10
2022-07-27T05:32:36.524Z,76.00
2022-07-27T05:33:12.397Z,75.90
2022-07-27T05:33:49.312Z,75.70
2022-07-27T05:34:25.317Z,75.50
2022-07-27T05:35:00.824Z,75.40
2022-07-27T05:35:36.563Z,75.50
2022-07-27T05:36:11.509Z,75.40
2022-07-27T05:36:46.102Z,75.20
2022-07-27T05:37:20.578Z,75.10
2022-07-27T05:37:55.288Z,75.00
